Terminal Aerodrome Forecast
Issued by NWS Mt. Holly, NJ

Home | Current Version | Previous Version | Text Only | Print | Product List | Glossary On
Versions: 1 2 3 4 5 6 7 8 9 10 11 12 13 14 15 16 17 18 19 20 21 22 23 24 25 26 27 28 29 30 31 32 33 34 35 36 37 38 39 40 41 42 43 44 45 46 47 48 49 50
651
FTAK31 PANC 281757
TAFABE
TAF
PABE 281757Z 2818/2918 23010KT P6SM OVC007
      TEMPO 2818/2819 SCT007
     FM281900 24010KT P6SM FEW007 BKN015
     FM282200 23015KT P6SM BKN040
     FM290900 22012KT P6SM -SHRA BKN005 OVC015=

USA.gov is the U.S. government's official web portal to all federal, state and local government web resources and services.